Time;durP1;ratioP1;P1;durP2;ratioP2;P2;SDS_P1;SDS_P2;PMS_P1;PMS_P2;Temp;Humidity;BMP_temperature;BMP_pressure;BME280_temperature;BME280_humidity;BME280_pressure;Samples;Min_cycle;Max_cycle;Signal;HPM_P1;HPM_P2
2023/09/05 00:00:46;;;;;;;2.15;1.45;;;;;;;15.61;100.00;94757.41;4991385;28;20225;-74
2023/09/05 00:03:16;;;;;;;2.42;1.77;;;;;;;15.68;100.00;94745.06;4991404;28;20213;-74
2023/09/05 00:05:43;;;;;;;2.75;1.73;;;;;;;15.73;100.00;94742.84;4991379;28;20669;-74
2023/09/05 00:08:10;;;;;;;2.15;1.55;;;;;;;15.68;100.00;94745.06;4991129;28;20272;-74
2023/09/05 00:10:36;;;;;;;2.15;1.70;;;;;;;15.71;100.00;94738.91;4991271;28;20233;-74
2023/09/05 00:13:05;;;;;;;3.60;1.35;;;;;;;15.70;100.00;94738.13;4991397;28;20643;-74
2023/09/05 00:15:32;;;;;;;2.63;1.90;;;;;;;15.62;100.00;94731.69;4991364;28;20217;-74
2023/09/05 00:17:59;;;;;;;2.22;1.70;;;;;;;15.61;100.00;94734.78;4991411;28;20213;-74
2023/09/05 00:20:27;;;;;;;4.05;1.35;;;;;;;15.60;100.00;94727.72;4990869;28;20276;-75
2023/09/05 00:22:54;;;;;;;3.30;2.38;;;;;;;15.62;100.00;94731.69;4991274;28;20518;-74
2023/09/05 00:25:21;;;;;;;3.15;2.20;;;;;;;15.67;100.00;94718.91;4991054;28;20212;-74
2023/09/05 00:27:48;;;;;;;4.22;1.90;;;;;;;15.71;100.00;94727.97;4991281;28;20208;-75
2023/09/05 00:30:16;;;;;;;2.80;1.63;;;;;;;15.78;100.00;94719.94;4991033;28;20214;-75
2023/09/05 00:32:43;;;;;;;2.38;1.63;;;;;;;15.74;100.00;94733.50;4991294;28;20252;-74
2023/09/05 00:35:11;;;;;;;1.70;1.33;;;;;;;15.75;100.00;94728.81;4990867;28;20220;-74
2023/09/05 00:37:39;;;;;;;2.40;1.63;;;;;;;15.79;100.00;94713.31;4991261;28;20221;-75
2023/09/05 00:40:07;;;;;;;3.00;1.77;;;;;;;15.76;100.00;94709.34;4991003;28;20603;-74
2023/09/05 00:42:34;;;;;;;2.28;1.60;;;;;;;15.70;100.00;94720.94;4991490;28;20210;-75
2023/09/05 00:45:01;;;;;;;2.05;1.58;;;;;;;15.71;100.00;94717.06;4993859;28;20613;-74
2023/09/05 00:47:29;;;;;;;3.03;1.55;;;;;;;15.73;100.00;94710.06;4995005;28;20630;-74
2023/09/05 00:49:56;;;;;;;4.40;1.83;;;;;;;15.75;100.00;94721.44;4994548;28;20276;-74
2023/09/05 00:52:25;;;;;;;2.08;1.42;;;;;;;15.71;100.00;94709.66;4994461;28;20206;-74
2023/09/05 00:54:54;;;;;;;2.65;1.52;;;;;;;15.71;100.00;94717.84;4994405;28;20268;-74
2023/09/05 00:57:21;;;;;;;1.50;1.10;;;;;;;15.61;100.00;94708.25;4994761;28;20230;-74
2023/09/05 00:59:48;;;;;;;2.22;1.55;;;;;;;15.52;100.00;94715.84;4994548;28;20198;-74
2023/09/05 01:02:15;;;;;;;2.22;1.42;;;;;;;15.56;100.00;94714.00;4994706;28;20664;-73
2023/09/05 01:04:43;;;;;;;2.42;1.40;;;;;;;15.52;100.00;94721.31;4994497;28;20256;-74
2023/09/05 01:07:17;;;;;;;1.58;1.15;;;;;;;15.51;100.00;94718.91;4993976;28;20221;-75
2023/09/05 01:09:56;;;;;;;1.63;1.30;;;;;;;15.54;100.00;94710.81;4993983;28;20221;-74
2023/09/05 01:12:23;;;;;;;1.42;1.02;;;;;;;15.56;100.00;94711.28;4994461;28;20552;-74
2023/09/05 01:14:50;;;;;;;2.13;1.23;;;;;;;15.56;100.00;94705.81;4993882;28;20210;-75
2023/09/05 01:17:17;;;;;;;2.63;1.50;;;;;;;15.56;100.00;94716.75;4993730;28;20288;-74
2023/09/05 01:19:44;;;;;;;3.15;1.67;;;;;;;15.58;100.00;94722.63;4994175;28;20210;-74
2023/09/05 01:22:22;;;;;;;1.52;1.20;;;;;;;15.51;100.00;94729.84;4994098;28;20229;-75
2023/09/05 01:24:51;;;;;;;1.50;1.10;;;;;;;15.49;100.00;94721.22;4993978;28;20189;-74
2023/09/05 01:27:22;;;;;;;1.60;1.08;;;;;;;15.46;100.00;94719.97;4993985;28;20228;-75
2023/09/05 01:29:50;;;;;;;1.25;0.85;;;;;;;15.45;100.00;94721.13;4993772;28;20288;-73
2023/09/05 01:32:17;;;;;;;2.67;1.40;;;;;;;15.43;100.00;94717.97;4993752;28;20217;-74
2023/09/05 01:34:44;;;;;;;1.73;1.20;;;;;;;15.46;100.00;94711.00;4993677;28;20264;-73
2023/09/05 01:37:14;;;;;;;2.28;1.45;;;;;;;15.45;100.00;94703.94;4993760;28;20229;-74
2023/09/05 01:39:40;;;;;;;1.40;1.13;;;;;;;15.43;100.00;94701.59;4993324;28;20264;-74
2023/09/05 01:42:09;;;;;;;1.20;1.10;;;;;;;15.46;100.00;94706.31;4993303;28;20551;-74
2023/09/05 01:44:36;;;;;;;1.83;1.13;;;;;;;15.42;100.00;94710.16;4993924;28;20216;-74
2023/09/05 01:47:03;;;;;;;2.35;1.27;;;;;;;15.39;100.00;94711.66;4993446;28;20256;-74
2023/09/05 01:49:30;;;;;;;2.58;1.33;;;;;;;15.40;100.00;94702.31;4993688;28;20213;-74
2023/09/05 01:51:55;;;;;;;5.05;1.35;;;;;;;15.44;100.00;94707.84;4993464;28;20280;-75
2023/09/05 01:54:24;;;;;;;1.80;1.30;;;;;;;15.40;100.00;94702.31;4993502;28;20217;-74
2023/09/05 01:56:51;;;;;;;4.88;1.65;;;;;;;15.37;100.00;94697.56;4992904;28;20233;-74
2023/09/05 01:59:20;;;;;;;2.83;1.90;;;;;;;15.31;100.00;94696.22;4993842;28;20350;-74
2023/09/05 02:01:46;;;;;;;2.22;1.33;;;;;;;15.29;100.00;94704.00;4993216;28;20241;-75
2023/09/05 02:04:13;;;;;;;1.50;1.30;;;;;;;15.20;100.00;94706.91;4993561;28;20276;-74
2023/09/05 02:06:40;;;;;;;2.03;1.30;;;;;;;15.25;100.00;94711.31;4993319;28;20209;-74
2023/09/05 02:09:07;;;;;;;3.08;2.03;;;;;;;15.18;100.00;94706.47;4992833;28;20214;-75
2023/09/05 02:11:34;;;;;;;3.63;1.70;;;;;;;15.19;100.00;94718.19;4993108;28;20209;-74
2023/09/05 02:14:01;;;;;;;3.53;2.10;;;;;;;15.22;100.00;94717.47;4993198;28;20221;-74
2023/09/05 02:16:30;;;;;;;2.75;1.95;;;;;;;15.19;100.00;94718.19;4992779;28;20231;-75
2023/09/05 02:18:57;;;;;;;2.58;1.75;;;;;;;15.19;100.00;94723.63;4993170;28;20569;-73
2023/09/05 02:21:24;;;;;;;2.92;2.30;;;;;;;15.31;100.00;94733.69;4992688;28;20202;-75
2023/09/05 02:23:51;;;;;;;2.83;1.83;;;;;;;15.26;100.00;94729.28;4992906;28;20268;-74
2023/09/05 02:26:19;;;;;;;4.07;2.80;;;;;;;15.27;100.00;94739.06;4992755;28;20212;-74
2023/09/05 02:28:46;;;;;;;4.07;2.45;;;;;;;15.22;100.00;94739.31;4992909;28;20209;-74
2023/09/05 02:31:12;;;;;;;5.15;3.38;;;;;;;15.25;100.00;94735.88;4992795;28;20268;-74
2023/09/05 02:33:40;;;;;;;3.97;2.60;;;;;;;15.23;100.00;94729.97;4993075;28;20206;-73
2023/09/05 02:36:15;;;;;;;3.78;2.90;;;;;;;15.21;100.00;94732.25;4992354;28;20206;-74
2023/09/05 02:38:42;;;;;;;5.47;2.92;;;;;;;15.20;100.00;94727.94;4993091;28;20734;-74
2023/09/05 02:41:12;;;;;;;4.18;2.75;;;;;;;15.21;100.00;94732.25;4992045;28;20252;-74
2023/09/05 02:43:39;;;;;;;5.75;3.22;;;;;;;15.22;100.00;94725.66;4992916;28;20296;-74
2023/09/05 02:46:06;;;;;;;3.70;2.83;;;;;;;15.15;100.00;94733.69;4992198;28;20216;-74
2023/09/05 02:48:33;;;;;;;4.80;3.35;;;;;;;15.14;100.00;94735.63;4992654;28;20209;-74
2023/09/05 02:51:06;;;;;;;4.00;3.10;;;;;;;15.20;100.00;94727.94;4992132;28;20217;-74
2023/09/05 02:53:33;;;;;;;4.20;3.08;;;;;;;15.18;100.00;94727.50;4992718;28;20280;-74
2023/09/05 02:55:59;;;;;;;5.10;3.00;;;;;;;15.20;100.00;94725.22;4991813;28;20206;-74
2023/09/05 02:58:28;;;;;;;6.72;3.47;;;;;;;15.23;100.00;94719.06;4992464;28;20237;-74
2023/09/05 03:00:59;;;;;;;5.00;3.22;;;;;;;15.23;100.00;94727.25;4992161;28;20206;-74
2023/09/05 03:03:26;;;;;;;7.70;4.00;;;;;;;15.21;100.00;94733.06;4992249;28;20248;-74
2023/09/05 03:05:53;;;;;;;6.22;3.78;;;;;;;15.21;100.00;94727.59;4992482;28;20256;-73
2023/09/05 03:08:22;;;;;;;5.65;3.35;;;;;;;15.24;100.00;94737.03;4991822;28;20237;-74
2023/09/05 03:10:51;;;;;;;5.72;3.55;;;;;;;15.25;100.00;94741.34;4991948;28;20209;-74
2023/09/05 03:13:18;;;;;;;6.20;3.90;;;;;;;15.19;100.00;94732.63;4992081;28;20402;-74
2023/09/05 03:15:44;;;;;;;7.68;3.60;;;;;;;15.15;100.00;94739.16;4992102;28;20249;-74
2023/09/05 03:18:11;;;;;;;6.18;4.35;;;;;;;15.07;100.00;94737.38;4991972;28;20214;-74
2023/09/05 03:20:38;;;;;;;6.25;4.38;;;;;;;14.98;100.00;94747.69;4991774;28;20216;-74
2023/09/05 03:23:05;;;;;;;5.80;3.88;;;;;;;15.00;100.00;94748.13;4992090;28;20209;-74
2023/09/05 03:25:33;;;;;;;8.13;4.72;;;;;;;15.01;100.00;94752.44;4991757;28;20237;-74
2023/09/05 03:28:00;;;;;;;9.15;5.20;;;;;;;14.99;100.00;94757.47;4992044;28;20620;-74
2023/09/05 03:30:26;;;;;;;6.13;4.22;;;;;;;15.00;100.00;94765.31;4992098;28;20555;-74
2023/09/05 03:32:53;;;;;;;7.50;4.82;;;;;;;15.07;100.00;94767.41;4992210;28;20568;-74
2023/09/05 03:35:20;;;;;;;9.68;4.38;;;;;;;15.16;100.00;94762.56;4991913;28;20221;-74
2023/09/05 03:37:47;;;;;;;6.22;4.07;;;;;;;15.01;100.00;94769.63;4991723;28;20746;-74
2023/09/05 03:40:13;;;;;;;7.22;4.28;;;;;;;14.99;100.00;94776.56;4991418;28;20272;-74
2023/09/05 03:42:43;;;;;;;7.90;5.05;;;;;;;15.14;100.00;94776.56;4991851;28;20233;-74
2023/09/05 03:45:11;;;;;;;8.00;4.80;;;;;;;15.20;100.00;94771.63;4991932;28;20213;-75
2023/09/05 03:47:37;;;;;;;6.32;4.60;;;;;;;15.22;100.00;94766.59;4991685;28;20201;-74
2023/09/05 03:50:06;;;;;;;6.97;4.60;;;;;;;15.27;100.00;94758.94;4991723;28;20221;-74
2023/09/05 03:52:33;;;;;;;7.03;4.35;;;;;;;15.19;100.00;94772.75;4991571;28;20212;-75
2023/09/05 03:55:00;;;;;;;5.47;4.47;;;;;;;15.07;100.00;94762.72;4991797;28;20574;-74
2023/09/05 03:57:27;;;;;;;8.70;4.28;;;;;;;15.10;100.00;94763.97;4991301;28;20284;-74
2023/09/05 03:59:55;;;;;;;6.45;3.95;;;;;;;15.07;100.00;94765.47;4992052;28;20653;-74
2023/09/05 04:02:22;;;;;;;7.35;4.72;;;;;;;15.08;100.00;94760.78;4991856;28;20205;-75
2023/09/05 04:04:48;;;;;;;6.63;4.70;;;;;;;14.99;100.00;94757.47;4992008;28;20600;-74
2023/09/05 04:07:15;;;;;;;11.07;5.13;;;;;;;14.97;100.00;94754.28;4991284;28;20202;-75
2023/09/05 04:09:42;;;;;;;7.18;5.05;;;;;;;14.96;100.00;94758.16;4991592;28;20209;-74
2023/09/05 04:12:09;;;;;;;6.78;4.60;;;;;;;14.82;100.00;94756.66;4991240;28;20204;-74
2023/09/05 04:14:36;;;;;;;8.73;5.22;;;;;;;14.83;100.00;94757.44;4991700;28;20209;-74
2023/09/05 04:17:04;;;;;;;7.57;4.45;;;;;;;15.02;100.00;94775.88;4991127;28;20248;-74
2023/09/05 04:19:31;;;;;;;8.88;5.35;;;;;;;15.23;100.00;94773.66;4993784;28;20213;-74
2023/09/05 04:21:58;;;;;;;7.07;5.03;;;;;;;15.67;100.00;94766.13;4995263;28;20212;-75
2023/09/05 04:24:25;;;;;;;11.80;6.22;;;;;;;15.98;100.00;94770.72;4995184;28;20215;-75
2023/09/05 04:26:53;;;;;;;9.18;6.05;;;;;;;16.21;100.00;94768.84;4995393;28;20221;-75
2023/09/05 04:29:20;;;;;;;11.07;6.15;;;;;;;16.59;99.97;94768.03;4994859;28;20205;-75
2023/09/05 04:31:47;;;;;;;8.57;6.10;;;;;;;16.82;94.88;94753.59;4995164;28;20205;-75
2023/09/05 04:34:16;;;;;;;9.88;6.15;;;;;;;17.35;94.08;94762.75;4994760;28;20228;-75
2023/09/05 04:36:42;;;;;;;10.45;6.30;;;;;;;17.85;92.88;94755.28;4995295;28;20279;-76
2023/09/05 04:39:10;;;;;;;9.63;6.38;;;;;;;17.73;90.62;94765.31;4994879;28;20248;-75
2023/09/05 04:41:36;;;;;;;10.02;6.30;;;;;;;17.35;91.64;94754.53;4995006;28;20218;-75
2023/09/05 04:44:03;;;;;;;10.30;6.65;;;;;;;17.14;92.35;94759.66;4994814;28;20210;-75
2023/09/05 04:46:33;;;;;;;8.63;6.25;;;;;;;17.13;93.96;94758.06;4994960;28;20663;-76
2023/09/05 04:49:03;;;;;;;9.45;8.20;;;;;;;17.12;94.60;94756.47;4994795;28;20216;-75
2023/09/05 04:51:31;;;;;;;9.27;6.68;;;;;;;17.13;97.90;94758.06;4994687;28;20257;-75
2023/09/05 04:53:58;;;;;;;12.38;8.68;;;;;;;17.21;96.95;94754.31;4994588;28;20205;-77
2023/09/05 04:56:25;;;;;;;10.63;6.28;;;;;;;17.38;95.08;94749.09;4994917;28;20574;-76
2023/09/05 04:58:51;;;;;;;9.52;6.55;;;;;;;17.50;95.42;94756.31;4994374;28;20229;-75
2023/09/05 05:01:18;;;;;;;8.50;6.30;;;;;;;17.48;95.00;94747.69;4994303;28;20216;-75
2023/09/05 05:03:45;;;;;;;10.25;6.63;;;;;;;17.39;94.48;94755.34;4994597;28;20202;-75
2023/09/05 05:06:12;;;;;;;10.70;6.15;;;;;;;17.30;94.54;94763.03;4994528;28;20206;-75
2023/09/05 05:08:40;;;;;;;7.55;6.13;;;;;;;17.05;94.46;94757.94;4994624;28;20619;-75
2023/09/05 05:11:07;;;;;;;8.07;6.05;;;;;;;17.17;95.60;94764.41;4994148;28;20209;-75
2023/09/05 05:13:34;;;;;;;8.75;6.00;;;;;;;17.43;95.43;94761.69;4994215;28;20259;-76
2023/09/05 05:16:01;;;;;;;13.52;6.40;;;;;;;17.66;94.79;94764.41;4993947;28;20333;-75
2023/09/05 05:18:28;;;;;;;13.35;7.05;;;;;;;17.65;91.39;94763.59;4994153;28;20218;-76
2023/09/05 05:20:54;;;;;;;13.43;7.90;;;;;;;17.51;91.42;94768.84;4994484;28;20260;-75
2023/09/05 05:23:21;;;;;;;11.90;6.75;;;;;;;17.73;92.40;94770.78;4994227;28;20272;-76
2023/09/05 05:25:49;;;;;;;13.35;6.68;;;;;;;17.61;90.06;94767.44;4994462;28;20212;-75
2023/09/05 05:28:16;;;;;;;8.30;6.05;;;;;;;17.87;90.73;94769.41;4993792;28;20209;-76
2023/09/05 05:30:43;;;;;;;15.88;9.25;;;;;;;17.83;90.28;94768.56;4992731;28;20272;-75
2023/09/05 05:33:10;;;;;;;11.45;7.82;;;;;;;17.35;90.90;94777.22;4993777;28;20208;-75
2023/09/05 05:35:37;;;;;;;10.75;7.68;;;;;;;17.22;92.95;94775.06;4993867;28;20201;-73
2023/09/05 05:38:04;;;;;;;14.27;10.40;;;;;;;17.29;93.01;94761.47;4993761;28;20280;-73
2023/09/05 05:40:32;;;;;;;14.10;8.45;;;;;;;17.22;95.07;94777.78;4993941;28;20209;-73
2023/09/05 05:43:00;;;;;;;13.35;8.68;;;;;;;17.34;95.38;94780.34;4993926;28;20206;-74
2023/09/05 05:45:27;;;;;;;10.57;8.20;;;;;;;17.47;94.59;94781.72;4993693;28;20206;-74
2023/09/05 05:47:55;;;;;;;11.55;7.50;;;;;;;17.41;95.40;94780.44;4993889;28;20206;-73
2023/09/05 05:50:22;;;;;;;13.25;8.40;;;;;;;17.29;94.72;94783.38;4993472;28;20213;-73
2023/09/05 05:52:49;;;;;;;11.98;8.38;;;;;;;16.88;94.49;94785.78;4994022;28;20213;-73
2023/09/05 05:55:16;;;;;;;9.15;6.18;;;;;;;16.74;95.60;94785.53;4993499;28;20349;-73
2023/09/05 05:57:43;;;;;;;16.13;8.70;;;;;;;16.73;97.27;94783.94;4993828;28;20639;-73
2023/09/05 06:00:12;;;;;;;12.93;8.18;;;;;;;16.73;96.11;94783.94;4993528;28;20300;-74
2023/09/05 06:02:39;;;;;;;18.38;8.13;;;;;;;16.76;95.48;94783.22;4993677;28;20209;-73
2023/09/05 06:05:07;;;;;;;11.82;7.35;;;;;;;16.75;96.20;94784.38;4993463;28;20217;-75
2023/09/05 06:07:34;;;;;;;15.63;6.90;;;;;;;16.65;95.21;94793.19;4993746;28;20284;-73
2023/09/05 06:10:01;;;;;;;14.82;8.60;;;;;;;16.54;96.06;94792.13;4993471;28;20209;-76
2023/09/05 06:12:28;;;;;;;11.50;7.75;;;;;;;16.44;96.73;94795.47;4993278;28;20209;-73
2023/09/05 06:14:55;;;;;;;11.93;7.72;;;;;;;16.47;97.53;94792.00;4993319;28;20667;-73
2023/09/05 06:17:23;;;;;;;12.38;8.18;;;;;;;16.52;96.88;94794.47;4992791;28;20241;-73
2023/09/05 06:19:50;;;;;;;13.35;8.55;;;;;;;16.50;96.27;94783.88;4993057;28;20230;-72
2023/09/05 06:22:17;;;;;;;10.85;6.38;;;;;;;16.49;96.32;94789.72;4993321;28;20209;-73
2023/09/05 06:24:44;;;;;;;12.52;8.43;;;;;;;16.48;96.89;94783.44;4993287;28;20209;-73
2023/09/05 06:27:11;;;;;;;14.40;8.60;;;;;;;16.65;96.89;94790.44;4992761;28;20213;-73
2023/09/05 06:29:37;;;;;;;15.43;8.45;;;;;;;16.59;95.48;94786.38;4993029;28;20543;-73
2023/09/05 06:32:05;;;;;;;13.70;7.70;;;;;;;16.50;95.38;94791.28;4992791;28;20213;-72
2023/09/05 06:34:33;;;;;;;14.65;8.48;;;;;;;16.44;95.67;94781.78;4993103;28;20236;-73
2023/09/05 06:37:01;;;;;;;9.15;6.47;;;;;;;16.42;97.42;94789.56;4993109;28;20213;-74
2023/09/05 06:39:28;;;;;;;12.15;8.45;;;;;;;16.23;97.49;94804.81;4993033;28;20229;-74
2023/09/05 06:41:54;;;;;;;12.63;8.45;;;;;;;16.21;98.59;94809.84;4992354;28;20208;-72
2023/09/05 06:44:21;;;;;;;11.88;8.48;;;;;;;16.25;98.63;94810.72;4992394;28;20213;-73
2023/09/05 06:46:48;;;;;;;12.10;8.35;;;;;;;16.29;96.80;94808.03;4992688;28;20662;-74
2023/09/05 06:49:15;;;;;;;12.75;8.82;;;;;;;16.45;97.35;94805.25;4992464;28;20210;-72
2023/09/05 06:51:48;;;;;;;14.30;8.63;;;;;;;16.64;96.59;94802.53;4992422;28;20209;-73
2023/09/05 06:54:14;;;;;;;19.05;8.73;;;;;;;16.86;95.70;94801.78;4992653;28;20190;-73
2023/09/05 06:56:41;;;;;;;11.75;8.77;;;;;;;17.09;94.39;94806.47;4992600;28;20606;-72
2023/09/05 06:59:17;;;;;;;11.77;8.20;;;;;;;17.22;92.92;94805.94;4992373;28;20782;-73
2023/09/05 07:01:44;;;;;;;11.63;7.80;;;;;;;17.47;91.46;94802.84;4992626;28;20651;-73
2023/09/05 07:04:11;;;;;;;15.82;8.50;;;;;;;17.81;90.23;94798.28;4992245;28;20212;-73
2023/09/05 07:06:39;;;;;;;10.82;7.25;;;;;;;18.34;86.18;94813.53;4992466;28;20205;-73
2023/09/05 07:09:08;;;;;;;7.85;5.57;;;;;;;18.39;86.58;94807.72;4992173;28;20571;-72
2023/09/05 07:11:34;;;;;;;11.25;7.15;;;;;;;18.38;86.43;94817.09;4992322;28;20552;-73
2023/09/05 07:14:01;;;;;;;9.57;7.13;;;;;;;18.25;87.33;94818.50;4992196;28;20638;-73
2023/09/05 07:16:28;;;;;;;12.13;6.78;;;;;;;18.02;86.78;94832.28;4991647;28;20650;-73
2023/09/05 07:18:55;;;;;;;8.77;6.60;;;;;;;17.85;88.59;94830.09;4991930;28;20225;-73
2023/09/05 07:21:21;;;;;;;11.75;7.50;;;;;;;17.66;88.40;94830.94;4991595;28;20197;-72
2023/09/05 07:23:48;;;;;;;17.02;8.63;;;;;;;17.21;90.28;94834.50;4992065;28;20213;-73
2023/09/05 07:26:17;;;;;;;14.45;7.70;;;;;;;17.24;91.09;94835.69;4991548;28;20209;-73
2023/09/05 07:28:46;;;;;;;10.70;6.88;;;;;;;17.26;90.80;94838.84;4992077;28;20209;-74
2023/09/05 07:31:14;;;;;;;11.60;7.32;;;;;;;17.05;91.52;94845.53;4991490;28;20209;-73
2023/09/05 07:33:41;;;;;;;14.30;7.93;;;;;;;17.04;92.14;94849.44;4992304;28;20292;-73
2023/09/05 07:36:08;;;;;;;11.65;7.93;;;;;;;16.94;92.16;94843.78;4991493;28;20205;-73
2023/09/05 07:38:35;;;;;;;11.32;6.93;;;;;;;16.86;92.21;94859.25;4992135;28;20693;-73
2023/09/05 07:41:03;;;;;;;6.45;5.05;;;;;;;16.88;92.80;94859.69;4991606;28;20207;-73
2023/09/05 07:43:33;;;;;;;8.77;6.97;;;;;;;16.97;92.87;94864.91;4992032;28;20559;-73
2023/09/05 07:46:00;;;;;;;12.63;7.38;;;;;;;16.86;93.40;94863.94;4991805;28;20275;-75
2023/09/05 07:48:27;;;;;;;10.30;7.05;;;;;;;16.84;93.00;94872.50;4991669;28;20337;-74
2023/09/05 07:51:01;;;;;;;13.57;7.55;;;;;;;16.89;93.59;94863.22;4991990;28;20619;-73
2023/09/05 07:53:29;;;;;;;11.63;6.88;;;;;;;16.95;93.67;94857.06;4992228;28;20201;-73
2023/09/05 07:55:56;;;;;;;11.68;7.35;;;;;;;16.96;93.55;94861.38;4995561;28;20217;-73
2023/09/05 07:58:23;;;;;;;12.60;6.80;;;;;;;17.01;92.59;94847.41;4995448;28;20249;-73
2023/09/05 08:00:53;;;;;;;13.23;7.35;;;;;;;17.13;92.79;94862.88;4995619;28;20252;-73
2023/09/05 08:03:19;;;;;;;10.55;6.70;;;;;;;17.21;91.56;94858.34;4995608;28;20602;-73
2023/09/05 08:05:46;;;;;;;10.85;7.80;;;;;;;17.47;90.35;94863.88;4995419;28;20606;-74
2023/09/05 08:08:14;;;;;;;11.07;6.70;;;;;;;17.84;87.87;94855.09;4995242;28;20237;-74
2023/09/05 08:10:41;;;;;;;10.18;6.85;;;;;;;17.91;87.21;94855.22;4995315;28;20205;-73
2023/09/05 08:13:10;;;;;;;9.32;6.72;;;;;;;18.33;85.38;94852.28;4995422;28;20312;-73
2023/09/05 08:15:38;;;;;;;14.95;6.35;;;;;;;18.57;84.58;94851.84;4995361;28;20205;-74
2023/09/05 08:18:07;;;;;;;10.07;7.07;;;;;;;18.75;83.13;94858.34;4995598;28;20533;-74
2023/09/05 08:20:34;;;;;;;13.38;7.50;;;;;;;18.47;83.63;94858.75;4995352;28;20201;-74
2023/09/05 08:23:01;;;;;;;9.35;6.85;;;;;;;18.72;82.84;94858.34;4996000;28;20224;-74
2023/09/05 08:25:28;;;;;;;11.10;8.70;;;;;;;19.42;81.49;94858.28;4995560;28;20586;-74
2023/09/05 08:27:55;;;;;;;12.20;6.95;;;;;;;19.23;80.13;94857.72;4994859;28;20206;-74
2023/09/05 08:30:24;;;;;;;10.40;7.05;;;;;;;19.38;80.00;94856.69;4994949;28;20272;-74
2023/09/05 08:32:51;;;;;;;9.88;6.80;;;;;;;19.58;79.46;94866.31;4995183;28;20665;-73
2023/09/05 08:35:19;;;;;;;9.35;5.88;;;;;;;19.59;78.41;94867.91;4995017;28;20256;-74
2023/09/05 08:37:46;;;;;;;10.25;7.30;;;;;;;19.46;78.00;94870.13;4994968;28;20260;-74
2023/09/05 08:40:15;;;;;;;11.73;8.07;;;;;;;19.51;78.87;94860.78;4995150;28;20587;-73
2023/09/05 08:42:42;;;;;;;6.85;5.18;;;;;;;19.21;79.26;94862.81;4977997;28;20202;-75
2023/09/05 08:45:12;;;;;;;15.60;8.50;;;;;;;19.04;80.71;94870.47;4994794;28;20214;-74
2023/09/05 08:47:39;;;;;;;10.60;7.85;;;;;;;18.82;80.77;94868.66;4994927;28;20209;-74
2023/09/05 08:50:08;;;;;;;11.93;8.30;;;;;;;18.83;80.40;94870.22;4994933;28;20268;-75
2023/09/05 08:52:38;;;;;;;12.52;8.52;;;;;;;18.98;80.82;94880.22;4977094;28;20561;-74
2023/09/05 08:55:10;;;;;;;8.50;5.78;;;;;;;19.02;80.17;94872.78;4994741;28;20224;-74
2023/09/05 08:57:39;;;;;;;9.40;5.97;;;;;;;19.22;79.89;94884.41;4994508;28;20200;-75
2023/09/05 09:00:08;;;;;;;8.73;6.18;;;;;;;19.46;78.63;94874.81;4995137;28;20261;-74
2023/09/05 09:02:36;;;;;;;12.75;7.50;;;;;;;19.59;76.67;94872.63;4994389;28;20213;-74
2023/09/05 09:05:06;;;;;;;10.00;7.50;;;;;;;19.79;75.31;94869.28;4994411;28;20300;-74
2023/09/05 09:07:32;;;;;;;8.23;5.63;;;;;;;20.38;75.42;94875.59;4994228;28;20198;-74
2023/09/05 09:10:16;;;;;;;11.48;7.07;;;;;;;20.95;72.88;94864.88;4994638;28;20209;-75
2023/09/05 09:12:43;;;;;;;10.02;6.60;;;;;;;21.13;71.45;94865.72;4994470;28;20285;-76
2023/09/05 09:15:10;;;;;;;8.68;6.82;;;;;;;21.74;70.22;94866.66;4994792;28;20209;-74
2023/09/05 09:17:38;;;;;;;12.13;7.07;;;;;;;21.07;70.71;94867.28;4994008;28;20257;-75
2023/09/05 09:20:06;;;;;;;7.38;6.10;;;;;;;21.02;70.59;94862.16;4994393;28;20229;-75
2023/09/05 09:22:33;;;;;;;8.15;6.18;;;;;;;21.17;69.04;94861.03;4994357;28;20309;-75
2023/09/05 09:25:12;;;;;;;7.05;6.03;;;;;;;20.92;70.58;94849.91;4994669;28;20205;-75
2023/09/05 09:27:39;;;;;;;11.15;5.95;;;;;;;21.02;71.01;94859.41;4994642;28;20543;-75
2023/09/05 09:30:08;;;;;;;8.27;6.00;;;;;;;20.24;70.62;94867.22;4994205;28;20267;-75
2023/09/05 09:32:35;;;;;;;9.13;5.72;;;;;;;19.82;71.38;94862.22;4993994;28;20716;-75
2023/09/05 09:35:06;;;;;;;6.82;4.95;;;;;;;19.67;72.48;94864.06;4994479;28;20579;-75
2023/09/05 09:37:34;;;;;;;8.50;5.57;;;;;;;19.89;71.49;94859.53;4993848;28;20190;-75
2023/09/05 09:40:05;;;;;;;6.18;5.55;;;;;;;19.86;70.88;94855.56;4993921;28;20237;-73
2023/09/05 09:42:33;;;;;;;6.40;3.67;;;;;;;19.87;70.24;94845.38;4993962;28;20529;-73
2023/09/05 09:45:01;;;;;;;5.45;3.65;;;;;;;19.51;71.23;94872.56;4994375;28;20222;-74
2023/09/05 09:47:30;;;;;;;5.05;3.30;;;;;;;19.64;70.99;94853.84;4993776;28;20638;-74
2023/09/05 09:49:59;;;;;;;4.90;3.38;;;;;;;19.65;69.49;94849.91;4993853;28;20209;-73
2023/09/05 09:52:29;;;;;;;6.55;3.15;;;;;;;19.78;69.93;94847.66;4976368;28;20217;-74
2023/09/05 09:55:00;;;;;;;5.30;3.25;;;;;;;19.72;68.68;94838.97;4994208;28;20193;-74
2023/09/05 09:57:35;;;;;;;6.35;4.13;;;;;;;19.90;69.12;94846.56;4993597;28;20639;-74
2023/09/05 10:00:15;;;;;;;5.82;4.57;;;;;;;19.78;68.09;94850.41;4994070;28;20260;-74
2023/09/05 10:02:43;;;;;;;4.13;2.72;;;;;;;19.80;68.34;94848.88;4974376;28;20249;-73
2023/09/05 10:05:11;;;;;;;3.60;2.75;;;;;;;19.80;67.67;94837.06;4974079;28;20249;-74
2023/09/05 10:07:38;;;;;;;6.97;4.97;;;;;;;19.77;68.26;94830.38;4973896;28;20207;-74
2023/09/05 10:10:07;;;;;;;5.50;3.65;;;;;;;20.15;66.92;94828.28;4974224;28;20686;-74
2023/09/05 10:12:36;;;;;;;6.18;3.58;;;;;;;20.36;66.11;94819.41;4973907;28;20284;-75
2023/09/05 10:15:07;;;;;;;4.85;2.80;;;;;;;20.33;65.51;94834.69;4973787;28;20675;-75
2023/09/05 10:17:35;;;;;;;3.72;3.00;;;;;;;20.67;63.62;94829.75;4972768;28;20659;-75
2023/09/05 10:20:05;;;;;;;3.80;2.75;;;;;;;20.87;62.78;94822.75;4973563;28;20230;-75
2023/09/05 10:22:34;;;;;;;3.83;3.10;;;;;;;20.90;62.35;94829.47;4989926;28;20201;-74
2023/09/05 10:25:01;;;;;;;3.55;2.95;;;;;;;20.83;62.05;94852.25;4993417;28;20213;-75
2023/09/05 10:27:28;;;;;;;6.15;3.60;;;;;;;20.91;62.07;94823.53;4992985;28;20209;-74
2023/09/05 10:29:57;;;;;;;6.05;3.25;;;;;;;20.98;61.39;94817.28;4993226;28;20217;-74
2023/09/05 10:32:26;;;;;;;6.40;3.97;;;;;;;21.34;61.76;94831.16;4993185;28;20214;-73
2023/09/05 10:34:59;;;;;;;4.78;3.45;;;;;;;21.22;60.04;94830.34;4993103;28;20563;-75
2023/09/05 10:37:40;;;;;;;5.03;3.70;;;;;;;21.38;60.56;94838.25;4992868;28;20229;-75
2023/09/05 10:40:08;;;;;;;6.78;3.55;;;;;;;21.40;59.94;94859.91;4993013;28;20209;-75
2023/09/05 10:42:42;;;;;;;3.08;2.72;;;;;;;21.49;60.38;94838.25;4992258;28;20213;-75
2023/09/05 10:45:30;;;;;;;4.20;2.80;;;;;;;21.28;60.09;94842.56;4992996;28;20602;-74
2023/09/05 10:48:12;;;;;;;5.63;2.53;;;;;;;21.31;61.41;94842.97;4992356;28;20241;-74
2023/09/05 10:51:07;;;;;;;4.90;3.47;;;;;;;21.42;60.26;94827.25;4992690;28;20629;-76
2023/09/05 10:53:36;;;;;;;3.88;2.38;;;;;;;21.37;59.59;94833.91;4974818;28;20210;-73
2023/09/05 10:56:03;;;;;;;1.90;1.60;;;;;;;21.41;59.60;94820.16;4992905;28;20629;-74
2023/09/05 10:58:47;;;;;;;2.60;2.08;;;;;;;21.61;58.99;94840.63;4992322;28;20659;-74
2023/09/05 11:01:56;;;;;;;2.67;2.33;;;;;;;21.78;58.52;94828.84;4992380;28;20233;-74
2023/09/05 11:04:29;;;;;;;6.30;3.10;;;;;;;21.76;58.27;94846.94;4992181;28;20190;-74
2023/09/05 11:07:06;;;;;;;6.25;4.47;;;;;;;21.67;60.09;94825.28;4992391;28;20258;-77
2023/09/05 11:09:48;;;;;;;3.28;2.67;;;;;;;21.69;60.24;94836.72;4992001;28;20201;-72
2023/09/05 11:12:15;;;;;;;2.55;2.22;;;;;;;;;;4992426;28;20552;-72
2023/09/05 11:14:41;;;;;;;4.10;2.67;;;;;;;21.47;60.54;94835.09;4992188;28;20212;-74
2023/09/05 11:17:15;;;;;;;2.60;1.92;;;;;;;21.61;59.50;94846.16;4991966;28;20241;-74
2023/09/05 11:19:45;;;;;;;4.97;2.60;;;;;;;21.39;60.30;94836.28;4992191;28;20604;-75
2023/09/05 11:22:15;;;;;;;6.40;2.70;;;;;;;21.60;59.54;94845.38;4992341;28;20273;-75
2023/09/05 11:24:47;;;;;;;3.20;2.10;;;;;;;21.37;58.57;94863.44;4992349;28;20276;-74
2023/09/05 11:27:20;;;;;;;5.93;3.15;;;;;;;21.43;58.42;94818.59;4992328;28;20564;-73
2023/09/05 11:29:51;;;;;;;7.47;3.30;;;;;;;21.89;59.36;94824.09;4992103;28;20641;-74
2023/09/05 11:32:20;;;;;;;4.88;3.53;;;;;;;21.95;56.98;94822.53;4992259;28;20193;-73
2023/09/05 11:34:48;;;;;;;3.08;2.33;;;;;;;21.84;57.41;94832.78;4992200;28;20576;-74